This is the latest recevied weather packets stored in our database for station/object E22ZMG-2. If no packets are shown the sender has not sent any weather packets the latest 10 day(s).
| Time | Temp. | Humidity | Pressure | Rain* | Wind** | Luminosity | Snow |
|---|---|---|---|---|---|---|---|
| 1778175594 | 27.22° C | 73% | 928 hPa | - | - | 0 W/m² | - |
| 1778174970 | 27.22° C | 73% | 928 hPa | - | - | 0 W/m² | - |
| 1778174346 | 27.22° C | 73% | 928 hPa | - | - | 0 W/m² | - |
| 1778173722 | 26.67° C | 74% | 928 hPa | - | - | 0 W/m² | - |
| 1778173098 | 27.22° C | 73% | 928 hPa | - | - | 0 W/m² | - |
| 1778172474 | 27.22° C | 74% | 928 hPa | - | - | 0 W/m² | - |
| 1778171850 | 27.22° C | 72% | 928 hPa | - | - | 0 W/m² | - |
| 1778171226 | 27.22° C | 72% | 928 hPa | - | - | 0 W/m² | - |
| 1778170601 | 27.22° C | 71% | 928 hPa | - | - | 0 W/m² | - |
| 1778169978 | 26.67° C | 73% | 928 hPa | - | - | 0 W/m² | - |
| 1778169353 | 27.78° C | 72% | 928 hPa | - | - | 0 W/m² | - |
| 1778168729 | 27.78° C | 71% | 928 hPa | - | - | 0 W/m² | - |
| 1778168105 | 27.78° C | 72% | 929 hPa | - | - | 0 W/m² | - |
| 1778167481 | 27.78° C | 72% | 929 hPa | - | - | 0 W/m² | - |
| 1778166857 | 28.33° C | 72% | 929 hPa | - | - | 0 W/m² | - |
| 1778166233 | 28.33° C | 71% | 928 hPa | - | - | 0 W/m² | - |
| 1778165609 | 28.33° C | 69% | 928 hPa | - | - | 0 W/m² | - |
| 1778164985 | 28.33° C | 67% | 928 hPa | - | - | 0 W/m² | - |
| 1778164361 | 28.33° C | 68% | 927 hPa | - | - | 0 W/m² | - |
| 1778163737 | 27.78° C | 69% | 927 hPa | - | - | 0 W/m² | - |
| 1778151130 | 30° C | 66% | 922 hPa | - | - | 0 W/m² | - |
| 1778150506 | 30° C | 66% | 922 hPa | - | - | 0 W/m² | - |
| 1778149881 | 30° C | 65% | 922 hPa | - | - | 0 W/m² | - |
| 1778149256 | 29.44° C | 64% | 922 hPa | - | - | 0 W/m² | - |
| 1778148632 | 30° C | 61% | 922 hPa | - | - | 0 W/m² | - |
* Rain since midnight (hover to see other rain measurements)
** Current wind speed in m/s (hover to see current wind gust speed)